This is the latest recevied weather packets stored in our database for station/object PY2UEP-1. If no packets are shown the sender has not sent any weather packets the latest 1 day(s).
| Time | Temp. | Humidity | Pressure | Rain* | Wind** | Luminosity | Snow |
|---|---|---|---|---|---|---|---|
| 1778085950 | 29.44° C | 41% | 1020.7 hPa | 0 mm | - | - | - |
| 1778085050 | 29.44° C | 41% | 1021 hPa | 0 mm | - | - | - |
| 1778078451 | 28.33° C | 50% | 1023.2 hPa | 0 mm | - | - | - |
| 1778068250 | 22.78° C | 72% | 1023.6 hPa | 0 mm | - | - | - |
| 1778065249 | 21.11° C | 79% | 1023 hPa | 0 mm | - | - | - |
| 1778064949 | 20.56° C | 80% | 1022.9 hPa | 0 mm | - | - | - |
| 1778064349 | 20.56° C | 81% | 1022.6 hPa | 0 mm | - | - | - |
| 1778064049 | 20.56° C | 82% | 1022.6 hPa | 0 mm | - | - | - |
| 1778063449 | 20° C | 82% | 1022.6 hPa | 0 mm | - | - | - |
| 1778062549 | 19.44° C | 84% | 1022.2 hPa | 0 mm | - | - | - |
| 1778062249 | 19.44° C | 85% | 1022.1 hPa | 0 mm | - | - | - |
| 1778061949 | 19.44° C | 85% | 1022 hPa | 0 mm | - | - | - |
| 1778061349 | 18.89° C | 86% | 1021.8 hPa | 0 mm | - | - | - |
| 1778061049 | 18.89° C | 86% | 1021.8 hPa | 0 mm | - | - | - |
| 1778060749 | 18.89° C | 85% | 1021.8 hPa | 0 mm | - | - | - |
| 1778060149 | 19.44° C | 84% | 1021.8 hPa | 0 mm | - | - | - |
| 1778059849 | 19.44° C | 84% | 1021.8 hPa | 0 mm | - | - | - |
| 1778059549 | 19.44° C | 83% | 1021.7 hPa | 0 mm | - | - | - |
| 1778059249 | 19.44° C | 84% | 1021.6 hPa | 0 mm | - | - | - |
| 1778058949 | 19.44° C | 84% | 1021.6 hPa | 0 mm | - | - | - |
| 1778058649 | 19.44° C | 84% | 1021.3 hPa | 0 mm | - | - | - |
| 1778058349 | 19.44° C | 83% | 1021.3 hPa | 0 mm | - | - | - |
| 1778058049 | 19.44° C | 84% | 1021.3 hPa | 0 mm | - | - | - |
| 1778057749 | 19.44° C | 85% | 1021.2 hPa | 0 mm | - | - | - |
| 1778057449 | 19.44° C | 85% | 1021.1 hPa | 0 mm | - | - | - |
* Rain since midnight (hover to see other rain measurements)
** Current wind speed in m/s (hover to see current wind gust speed)